sensor_id;sensor_type;location;lat;lon;timestamp;pressure;altitude;pressure_sealevel;temperature;humidity
11049;BME280;5577;42.706;23.160;2024-02-23T00:01:41;93833.13;;;8.54;100.00
11049;BME280;5577;42.706;23.160;2024-02-23T00:04:25;93857.56;;;8.67;100.00
11049;BME280;5577;42.706;23.160;2024-02-23T00:07:09;93821.13;;;8.57;100.00
11049;BME280;5577;42.706;23.160;2024-02-23T00:09:53;93855.09;;;8.58;100.00
11049;BME280;5577;42.706;23.160;2024-02-23T00:12:37;93834.38;;;8.60;100.00
11049;BME280;5577;42.706;23.160;2024-02-23T00:15:21;93836.94;;;8.57;100.00
11049;BME280;5577;42.706;23.160;2024-02-23T00:18:05;93825.03;;;8.63;100.00
11049;BME280;5577;42.706;23.160;2024-02-23T00:20:50;93826.56;;;8.64;100.00
11049;BME280;5577;42.706;23.160;2024-02-23T00:23:34;93777.38;;;8.56;100.00
11049;BME280;5577;42.706;23.160;2024-02-23T00:26:18;93820.19;;;8.65;100.00
11049;BME280;5577;42.706;23.160;2024-02-23T00:29:02;93823.25;;;8.67;100.00
11049;BME280;5577;42.706;23.160;2024-02-23T00:31:47;93848.53;;;8.68;100.00
11049;BME280;5577;42.706;23.160;2024-02-23T00:34:31;93833.47;;;8.68;100.00
11049;BME280;5577;42.706;23.160;2024-02-23T00:37:16;93786.22;;;8.63;100.00
11049;BME280;5577;42.706;23.160;2024-02-23T00:40:00;93829.88;;;8.61;100.00
11049;BME280;5577;42.706;23.160;2024-02-23T00:42:44;93815.84;;;8.57;100.00
11049;BME280;5577;42.706;23.160;2024-02-23T00:45:28;93826.75;;;8.55;100.00
11049;BME280;5577;42.706;23.160;2024-02-23T00:48:12;93821.56;;;8.59;100.00
11049;BME280;5577;42.706;23.160;2024-02-23T00:50:57;93819.25;;;8.57;100.00
11049;BME280;5577;42.706;23.160;2024-02-23T00:53:41;93809.13;;;8.59;100.00
11049;BME280;5577;42.706;23.160;2024-02-23T00:56:25;93815.25;;;8.63;100.00
11049;BME280;5577;42.706;23.160;2024-02-23T00:59:10;93805.03;;;8.62;100.00
11049;BME280;5577;42.706;23.160;2024-02-23T01:01:54;93807.25;;;8.60;100.00
11049;BME280;5577;42.706;23.160;2024-02-23T01:04:39;93767.75;;;8.48;100.00
11049;BME280;5577;42.706;23.160;2024-02-23T01:07:23;93790.66;;;8.59;100.00
11049;BME280;5577;42.706;23.160;2024-02-23T01:10:07;93803.09;;;8.59;100.00
11049;BME280;5577;42.706;23.160;2024-02-23T01:12:51;93794.41;;;8.58;100.00
11049;BME280;5577;42.706;23.160;2024-02-23T01:15:35;93801.81;;;8.53;100.00
11049;BME280;5577;42.706;23.160;2024-02-23T01:18:19;93805.28;;;8.57;100.00
11049;BME280;5577;42.706;23.160;2024-02-23T01:21:03;93792.38;;;8.52;100.00
11049;BME280;5577;42.706;23.160;2024-02-23T01:23:47;93763.00;;;8.22;100.00
11049;BME280;5577;42.706;23.160;2024-02-23T01:26:31;93777.97;;;8.49;100.00
11049;BME280;5577;42.706;23.160;2024-02-23T01:29:15;93785.38;;;8.44;100.00
11049;BME280;5577;42.706;23.160;2024-02-23T01:32:00;93776.72;;;8.43;100.00
11049;BME280;5577;42.706;23.160;2024-02-23T01:34:45;93804.00;;;8.51;100.00
11049;BME280;5577;42.706;23.160;2024-02-23T01:37:29;93764.59;;;8.42;100.00
11049;BME280;5577;42.706;23.160;2024-02-23T01:40:13;93791.94;;;8.50;100.00
11049;BME280;5577;42.706;23.160;2024-02-23T01:43:04;93777.06;;;8.57;100.00
11049;BME280;5577;42.706;23.160;2024-02-23T01:45:48;93765.44;;;8.62;100.00
11049;BME280;5577;42.706;23.160;2024-02-23T01:48:33;93758.75;;;8.49;100.00
11049;BME280;5577;42.706;23.160;2024-02-23T01:51:17;93778.97;;;8.60;100.00
11049;BME280;5577;42.706;23.160;2024-02-23T01:54:01;93777.13;;;8.61;100.00
11049;BME280;5577;42.706;23.160;2024-02-23T01:56:46;93770.03;;;8.65;100.00
11049;BME280;5577;42.706;23.160;2024-02-23T01:59:30;93774.56;;;8.64;100.00
11049;BME280;5577;42.706;23.160;2024-02-23T02:02:15;93754.91;;;8.62;100.00
11049;BME280;5577;42.706;23.160;2024-02-23T02:04:59;93770.88;;;8.69;100.00
11049;BME280;5577;42.706;23.160;2024-02-23T02:07:43;93773.88;;;8.67;100.00
11049;BME280;5577;42.706;23.160;2024-02-23T02:10:29;93756.09;;;8.64;100.00
11049;BME280;5577;42.706;23.160;2024-02-23T02:13:13;93775.41;;;8.68;100.00
11049;BME280;5577;42.706;23.160;2024-02-23T02:16:01;93753.88;;;8.66;100.00
11049;BME280;5577;42.706;23.160;2024-02-23T02:18:45;93760.59;;;8.64;100.00
11049;BME280;5577;42.706;23.160;2024-02-23T02:21:31;93761.63;;;8.59;100.00
11049;BME280;5577;42.706;23.160;2024-02-23T02:24:15;93762.97;;;8.69;100.00
11049;BME280;5577;42.706;23.160;2024-02-23T02:26:59;93747.53;;;8.52;100.00
11049;BME280;5577;42.706;23.160;2024-02-23T02:29:43;93766.91;;;8.59;100.00
11049;BME280;5577;42.706;23.160;2024-02-23T02:32:27;93767.41;;;8.49;100.00
11049;BME280;5577;42.706;23.160;2024-02-23T02:35:11;93760.72;;;8.52;100.00
11049;BME280;5577;42.706;23.160;2024-02-23T02:37:56;93770.22;;;8.56;100.00
11049;BME280;5577;42.706;23.160;2024-02-23T02:40:40;93741.31;;;8.44;100.00
11049;BME280;5577;42.706;23.160;2024-02-23T02:43:23;93777.28;;;8.68;100.00
11049;BME280;5577;42.706;23.160;2024-02-23T02:46:07;93779.84;;;8.80;100.00
11049;BME280;5577;42.706;23.160;2024-02-23T02:48:51;93779.47;;;8.81;100.00
11049;BME280;5577;42.706;23.160;2024-02-23T02:51:35;93783.31;;;8.84;100.00
11049;BME280;5577;42.706;23.160;2024-02-23T02:54:19;93771.75;;;8.73;100.00
11049;BME280;5577;42.706;23.160;2024-02-23T02:57:03;93777.28;;;8.83;100.00
11049;BME280;5577;42.706;23.160;2024-02-23T02:59:47;93775.06;;;8.86;100.00
11049;BME280;5577;42.706;23.160;2024-02-23T03:02:34;93774.03;;;8.90;100.00
11049;BME280;5577;42.706;23.160;2024-02-23T03:05:18;93774.13;;;8.78;100.00
11049;BME280;5577;42.706;23.160;2024-02-23T03:08:02;93790.25;;;8.73;100.00
11049;BME280;5577;42.706;23.160;2024-02-23T03:10:46;93783.22;;;8.80;100.00
11049;BME280;5577;42.706;23.160;2024-02-23T03:13:31;93778.72;;;8.81;100.00
11049;BME280;5577;42.706;23.160;2024-02-23T03:16:18;93728.16;;;8.63;100.00
11049;BME280;5577;42.706;23.160;2024-02-23T03:19:03;93724.97;;;8.54;100.00
11049;BME280;5577;42.706;23.160;2024-02-23T03:21:47;93774.63;;;8.83;100.00
11049;BME280;5577;42.706;23.160;2024-02-23T03:24:31;93780.75;;;8.88;100.00
11049;BME280;5577;42.706;23.160;2024-02-23T03:27:14;93773.94;;;8.87;100.00
11049;BME280;5577;42.706;23.160;2024-02-23T03:29:58;93773.28;;;8.90;100.00
11049;BME280;5577;42.706;23.160;2024-02-23T03:32:42;93763.78;;;8.88;100.00
11049;BME280;5577;42.706;23.160;2024-02-23T03:35:26;93775.81;;;8.86;100.00
11049;BME280;5577;42.706;23.160;2024-02-23T03:38:10;93765.88;;;8.79;100.00
11049;BME280;5577;42.706;23.160;2024-02-23T03:40:54;93771.38;;;8.90;100.00
11049;BME280;5577;42.706;23.160;2024-02-23T03:43:38;93766.03;;;8.87;100.00
11049;BME280;5577;42.706;23.160;2024-02-23T03:46:22;93773.69;;;8.92;100.00
11049;BME280;5577;42.706;23.160;2024-02-23T03:49:05;93780.91;;;8.95;100.00
11049;BME280;5577;42.706;23.160;2024-02-23T03:51:49;93761.53;;;8.87;100.00
11049;BME280;5577;42.706;23.160;2024-02-23T03:54:33;93779.28;;;8.90;100.00
11049;BME280;5577;42.706;23.160;2024-02-23T03:57:17;93777.28;;;8.83;100.00
11049;BME280;5577;42.706;23.160;2024-02-23T04:00:02;93706.16;;;8.40;100.00
11049;BME280;5577;42.706;23.160;2024-02-23T04:02:46;93769.69;;;8.82;100.00
11049;BME280;5577;42.706;23.160;2024-02-23T04:05:30;93780.53;;;8.77;100.00
11049;BME280;5577;42.706;23.160;2024-02-23T04:08:14;93778.56;;;8.74;100.00
11049;BME280;5577;42.706;23.160;2024-02-23T04:10:58;93769.81;;;8.70;100.00
11049;BME280;5577;42.706;23.160;2024-02-23T04:13:42;93775.75;;;8.67;100.00
11049;BME280;5577;42.706;23.160;2024-02-23T04:16:26;93781.78;;;8.67;100.00
11049;BME280;5577;42.706;23.160;2024-02-23T04:19:10;93769.97;;;8.61;100.00
11049;BME280;5577;42.706;23.160;2024-02-23T04:21:53;93769.03;;;8.54;100.00
11049;BME280;5577;42.706;23.160;2024-02-23T04:24:39;93783.84;;;8.58;100.00
11049;BME280;5577;42.706;23.160;2024-02-23T04:27:24;93769.03;;;8.54;100.00
11049;BME280;5577;42.706;23.160;2024-02-23T04:30:09;93770.38;;;8.48;100.00
11049;BME280;5577;42.706;23.160;2024-02-23T04:32:53;93767.06;;;8.51;100.00
11049;BME280;5577;42.706;23.160;2024-02-23T04:35:38;93767.69;;;8.44;100.00
11049;BME280;5577;42.706;23.160;2024-02-23T04:38:22;93773.38;;;8.62;100.00
11049;BME280;5577;42.706;23.160;2024-02-23T04:41:06;93781.44;;;8.53;100.00
11049;BME280;5577;42.706;23.160;2024-02-23T04:43:50;93757.63;;;8.50;100.00
11049;BME280;5577;42.706;23.160;2024-02-23T04:46:35;93782.66;;;8.56;100.00
11049;BME280;5577;42.706;23.160;2024-02-23T04:49:20;93781.28;;;8.46;100.00
11049;BME280;5577;42.706;23.160;2024-02-23T04:52:05;93780.25;;;8.51;100.00
11049;BME280;5577;42.706;23.160;2024-02-23T04:54:49;93786.38;;;8.55;100.00
11049;BME280;5577;42.706;23.160;2024-02-23T04:57:33;93776.09;;;8.50;100.00
11049;BME280;5577;42.706;23.160;2024-02-23T05:00:17;93794.41;;;8.43;100.00
11049;BME280;5577;42.706;23.160;2024-02-23T05:03:02;93798.16;;;8.42;100.00
11049;BME280;5577;42.706;23.160;2024-02-23T05:05:47;93799.50;;;8.36;100.00
11049;BME280;5577;42.706;23.160;2024-02-23T05:08:33;93816.09;;;8.36;100.00
11049;BME280;5577;42.706;23.160;2024-02-23T05:11:17;93821.09;;;8.41;100.00
11049;BME280;5577;42.706;23.160;2024-02-23T05:14:01;93806.28;;;8.37;100.00
11049;BME280;5577;42.706;23.160;2024-02-23T05:16:45;93810.38;;;8.34;100.00
11049;BME280;5577;42.706;23.160;2024-02-23T05:19:29;93813.19;;;8.41;100.00
11049;BME280;5577;42.706;23.160;2024-02-23T05:22:13;93808.25;;;8.40;100.00
11049;BME280;5577;42.706;23.160;2024-02-23T05:24:57;93807.91;;;8.41;100.00
11049;BME280;5577;42.706;23.160;2024-02-23T05:27:41;93823.66;;;8.38;100.00
11049;BME280;5577;42.706;23.160;2024-02-23T05:30:24;93811.66;;;8.40;100.00
11049;BME280;5577;42.706;23.160;2024-02-23T05:33:11;93810.22;;;8.43;100.00
11049;BME280;5577;42.706;23.160;2024-02-23T05:35:55;93700.28;;;7.57;100.00
11049;BME280;5577;42.706;23.160;2024-02-23T05:38:39;93732.34;;;8.02;100.00
11049;BME280;5577;42.706;23.160;2024-02-23T05:41:23;93820.34;;;8.56;100.00
11049;BME280;5577;42.706;23.160;2024-02-23T05:44:07;93782.47;;;8.33;100.00
11049;BME280;5577;42.706;23.160;2024-02-23T05:46:51;93699.84;;;7.83;100.00
11049;BME280;5577;42.706;23.160;2024-02-23T05:49:35;93824.53;;;8.57;100.00
11049;BME280;5577;42.706;23.160;2024-02-23T05:52:19;93819.09;;;8.66;100.00
11049;BME280;5577;42.706;23.160;2024-02-23T05:55:03;93822.91;;;8.84;100.00
11049;BME280;5577;42.706;23.160;2024-02-23T05:57:48;93819.75;;;8.94;100.00
11049;BME280;5577;42.706;23.160;2024-02-23T06:00:32;93817.47;;;8.93;100.00
11049;BME280;5577;42.706;23.160;2024-02-23T06:03:15;93827.16;;;8.88;100.00
11049;BME280;5577;42.706;23.160;2024-02-23T06:06:02;93823.41;;;8.90;100.00
11049;BME280;5577;42.706;23.160;2024-02-23T06:08:45;93829.44;;;8.90;100.00
11049;BME280;5577;42.706;23.160;2024-02-23T06:11:30;93821.47;;;8.87;100.00
11049;BME280;5577;42.706;23.160;2024-02-23T06:14:14;93834.38;;;8.92;100.00
11049;BME280;5577;42.706;23.160;2024-02-23T06:16:58;93840.94;;;8.98;100.00
11049;BME280;5577;42.706;23.160;2024-02-23T06:19:42;93839.09;;;8.98;100.00
11049;BME280;5577;42.706;23.160;2024-02-23T06:22:26;93836.84;;;9.00;100.00
11049;BME280;5577;42.706;23.160;2024-02-23T06:25:10;93839.31;;;9.09;100.00
11049;BME280;5577;42.706;23.160;2024-02-23T06:27:55;93845.44;;;9.13;100.00
11049;BME280;5577;42.706;23.160;2024-02-23T06:30:39;93823.97;;;9.14;100.00
11049;BME280;5577;42.706;23.160;2024-02-23T06:33:23;93841.59;;;9.26;100.00
11049;BME280;5577;42.706;23.160;2024-02-23T06:36:07;93840.97;;;9.32;100.00
11049;BME280;5577;42.706;23.160;2024-02-23T06:38:51;93839.44;;;9.31;100.00
11049;BME280;5577;42.706;23.160;2024-02-23T06:41:35;93835.78;;;9.36;100.00
11049;BME280;5577;42.706;23.160;2024-02-23T06:44:19;93836.50;;;9.52;100.00
11049;BME280;5577;42.706;23.160;2024-02-23T06:47:03;93848.91;;;9.67;100.00
11049;BME280;5577;42.706;23.160;2024-02-23T06:49:47;93846.97;;;9.64;100.00
11049;BME280;5577;42.706;23.160;2024-02-23T06:52:31;93842.84;;;9.85;100.00
11049;BME280;5577;42.706;23.160;2024-02-23T06:55:17;93846.75;;;9.91;100.00
11049;BME280;5577;42.706;23.160;2024-02-23T06:58:01;93851.72;;;9.93;100.00
11049;BME280;5577;42.706;23.160;2024-02-23T07:00:45;93855.28;;;10.00;100.00
11049;BME280;5577;42.706;23.160;2024-02-23T07:03:30;93840.31;;;9.89;100.00
11049;BME280;5577;42.706;23.160;2024-02-23T07:06:14;93846.63;;;10.03;100.00
11049;BME280;5577;42.706;23.160;2024-02-23T07:08:59;93842.44;;;10.02;100.00
11049;BME280;5577;42.706;23.160;2024-02-23T07:11:43;93838.38;;;10.24;100.00
11049;BME280;5577;42.706;23.160;2024-02-23T07:14:29;93837.66;;;10.27;100.00
11049;BME280;5577;42.706;23.160;2024-02-23T07:17:16;93846.34;;;10.27;100.00
11049;BME280;5577;42.706;23.160;2024-02-23T07:20:00;93844.97;;;10.33;100.00
11049;BME280;5577;42.706;23.160;2024-02-23T07:22:49;93834.16;;;10.42;100.00
11049;BME280;5577;42.706;23.160;2024-02-23T07:25:32;93843.81;;;10.53;100.00
11049;BME280;5577;42.706;23.160;2024-02-23T07:28:16;93844.00;;;10.64;100.00
11049;BME280;5577;42.706;23.160;2024-02-23T07:31:03;93848.47;;;10.60;100.00
11049;BME280;5577;42.706;23.160;2024-02-23T07:33:47;93846.75;;;10.71;100.00
11049;BME280;5577;42.706;23.160;2024-02-23T07:36:31;93837.88;;;10.82;100.00
11049;BME280;5577;42.706;23.160;2024-02-23T07:39:15;93847.06;;;10.88;99.65
11049;BME280;5577;42.706;23.160;2024-02-23T07:41:59;93833.25;;;10.98;95.57
11049;BME280;5577;42.706;23.160;2024-02-23T07:44:44;93844.16;;;11.19;94.41
11049;BME280;5577;42.706;23.160;2024-02-23T07:47:29;93828.59;;;11.44;91.10
11049;BME280;5577;42.706;23.160;2024-02-23T07:50:13;93840.13;;;11.55;90.65
11049;BME280;5577;42.706;23.160;2024-02-23T07:52:57;93850.38;;;11.83;87.87
11049;BME280;5577;42.706;23.160;2024-02-23T07:55:41;93831.91;;;11.90;85.06
11049;BME280;5577;42.706;23.160;2024-02-23T07:58:25;93840.63;;;11.90;84.03
11049;BME280;5577;42.706;23.160;2024-02-23T08:01:14;93844.38;;;12.19;82.81
11049;BME280;5577;42.706;23.160;2024-02-23T08:03:58;93854.63;;;12.20;80.70
11049;BME280;5577;42.706;23.160;2024-02-23T08:06:42;93854.28;;;12.22;81.25
11049;BME280;5577;42.706;23.160;2024-02-23T08:09:26;93851.47;;;12.08;79.87
11049;BME280;5577;42.706;23.160;2024-02-23T08:12:11;93836.44;;;12.22;79.81
11049;BME280;5577;42.706;23.160;2024-02-23T08:14:57;93851.94;;;12.53;78.40
11049;BME280;5577;42.706;23.160;2024-02-23T08:17:41;93842.59;;;12.66;75.88
11049;BME280;5577;42.706;23.160;2024-02-23T08:20:25;93853.78;;;12.82;76.82
11049;BME280;5577;42.706;23.160;2024-02-23T08:23:09;93853.75;;;13.22;73.80
11049;BME280;5577;42.706;23.160;2024-02-23T08:25:53;93854.91;;;13.21;72.97
11049;BME280;5577;42.706;23.160;2024-02-23T08:28:38;93848.56;;;13.40;71.49
11049;BME280;5577;42.706;23.160;2024-02-23T08:31:22;93853.22;;;13.53;70.84
11049;BME280;5577;42.706;23.160;2024-02-23T08:34:06;93850.94;;;13.52;71.36
11049;BME280;5577;42.706;23.160;2024-02-23T08:36:50;93843.28;;;13.47;69.70
11049;BME280;5577;42.706;23.160;2024-02-23T08:39:34;93846.16;;;13.82;68.49
11049;BME280;5577;42.706;23.160;2024-02-23T08:42:20;93843.19;;;13.97;67.24
11049;BME280;5577;42.706;23.160;2024-02-23T08:45:05;93823.50;;;14.12;67.15
11049;BME280;5577;42.706;23.160;2024-02-23T08:47:49;93820.97;;;14.44;65.42
11049;BME280;5577;42.706;23.160;2024-02-23T08:50:32;93845.31;;;14.43;64.06
11049;BME280;5577;42.706;23.160;2024-02-23T08:53:18;93838.47;;;14.45;63.59
11049;BME280;5577;42.706;23.160;2024-02-23T08:56:02;93870.25;;;14.10;64.17
11049;BME280;5577;42.706;23.160;2024-02-23T08:58:45;93851.97;;;13.98;64.30
11049;BME280;5577;42.706;23.160;2024-02-23T09:01:29;93844.59;;;14.56;62.48
11049;BME280;5577;42.706;23.160;2024-02-23T09:04:13;93853.06;;;15.35;60.78
11049;BME280;5577;42.706;23.160;2024-02-23T09:06:57;93845.06;;;14.97;59.59
11049;BME280;5577;42.706;23.160;2024-02-23T09:09:41;93853.03;;;15.00;60.13
11049;BME280;5577;42.706;23.160;2024-02-23T09:12:25;93854.19;;;15.31;59.53
11049;BME280;5577;42.706;23.160;2024-02-23T09:15:10;93868.94;;;16.16;57.39
11049;BME280;5577;42.706;23.160;2024-02-23T09:17:54;93854.56;;;15.89;56.79
11049;BME280;5577;42.706;23.160;2024-02-23T09:20:38;93860.28;;;15.14;58.24
11049;BME280;5577;42.706;23.160;2024-02-23T09:23:22;93873.25;;;15.12;58.85
11049;BME280;5577;42.706;23.160;2024-02-23T09:26:09;93858.81;;;15.58;57.70
11049;BME280;5577;42.706;23.160;2024-02-23T09:28:57;93853.63;;;16.41;55.42
11049;BME280;5577;42.706;23.160;2024-02-23T09:31:41;93862.66;;;17.30;53.49
11049;BME280;5577;42.706;23.160;2024-02-23T09:34:25;93856.91;;;17.79;51.61
11049;BME280;5577;42.706;23.160;2024-02-23T09:37:09;93863.09;;;17.25;50.81
11049;BME280;5577;42.706;23.160;2024-02-23T09:39:53;93851.13;;;17.43;51.07
11049;BME280;5577;42.706;23.160;2024-02-23T09:42:38;93861.47;;;16.79;52.55
11049;BME280;5577;42.706;23.160;2024-02-23T09:45:24;93853.59;;;17.17;51.53
11049;BME280;5577;42.706;23.160;2024-02-23T09:48:10;93852.59;;;16.93;51.15
11049;BME280;5577;42.706;23.160;2024-02-23T09:50:55;93848.28;;;17.61;50.43
11049;BME280;5577;42.706;23.160;2024-02-23T09:53:41;93847.72;;;19.60;47.25
11049;BME280;5577;42.706;23.160;2024-02-23T09:56:27;93862.59;;;20.11;43.54
11049;BME280;5577;42.706;23.160;2024-02-23T09:59:13;93844.63;;;20.47;43.54
11049;BME280;5577;42.706;23.160;2024-02-23T10:01:57;93848.47;;;19.11;44.30
11049;BME280;5577;42.706;23.160;2024-02-23T10:04:42;93850.03;;;19.58;43.15
11049;BME280;5577;42.706;23.160;2024-02-23T10:07:30;93843.00;;;18.28;45.16
11049;BME280;5577;42.706;23.160;2024-02-23T10:10:14;93842.72;;;16.86;48.13
11049;BME280;5577;42.706;23.160;2024-02-23T10:12:59;93840.22;;;17.13;47.89
11049;BME280;5577;42.706;23.160;2024-02-23T10:15:43;93835.34;;;17.52;47.21
11049;BME280;5577;42.706;23.160;2024-02-23T10:18:27;93837.69;;;17.47;47.59
11049;BME280;5577;42.706;23.160;2024-02-23T10:21:11;93842.50;;;19.72;43.41
11049;BME280;5577;42.706;23.160;2024-02-23T10:23:56;93832.69;;;19.86;42.19
11049;BME280;5577;42.706;23.160;2024-02-23T10:26:39;93834.78;;;19.02;43.83
11049;BME280;5577;42.706;23.160;2024-02-23T10:29:25;93810.00;;;21.20;40.98
11049;BME280;5577;42.706;23.160;2024-02-23T10:32:14;93814.75;;;22.91;37.71
11049;BME280;5577;42.706;23.160;2024-02-23T10:35:00;93796.00;;;21.57;38.20
11049;BME280;5577;42.706;23.160;2024-02-23T10:37:49;93813.53;;;20.81;39.27
11049;BME280;5577;42.706;23.160;2024-02-23T10:40:39;93808.34;;;18.14;43.33
11049;BME280;5577;42.706;23.160;2024-02-23T10:43:33;93802.41;;;17.96;44.15
11049;BME280;5577;42.706;23.160;2024-02-23T10:46:18;93795.38;;;18.99;43.48
11049;BME280;5577;42.706;23.160;2024-02-23T10:49:04;93787.28;;;19.71;41.38
11049;BME280;5577;42.706;23.160;2024-02-23T10:51:49;93792.69;;;19.91;41.23
11049;BME280;5577;42.706;23.160;2024-02-23T10:54:34;93783.81;;;20.53;40.35
11049;BME280;5577;42.706;23.160;2024-02-23T10:57:18;93759.06;;;20.03;41.50
11049;BME280;5577;42.706;23.160;2024-02-23T11:00:03;93772.16;;;19.81;41.53
11049;BME280;5577;42.706;23.160;2024-02-23T11:02:54;93770.59;;;21.58;39.25
11049;BME280;5577;42.706;23.160;2024-02-23T11:05:40;93770.34;;;20.53;40.11
11049;BME280;5577;42.706;23.160;2024-02-23T11:08:23;93753.09;;;19.52;41.70
11049;BME280;5577;42.706;23.160;2024-02-23T11:11:08;93735.84;;;19.30;41.39
11049;BME280;5577;42.706;23.160;2024-02-23T11:13:55;93747.78;;;19.49;41.54
11049;BME280;5577;42.706;23.160;2024-02-23T11:16:40;93749.56;;;21.53;38.14
11049;BME280;5577;42.706;23.160;2024-02-23T11:19:40;93742.94;;;21.09;37.94
11049;BME280;5577;42.706;23.160;2024-02-23T11:22:30;93727.38;;;21.33;37.59
11049;BME280;5577;42.706;23.160;2024-02-23T11:25:16;93738.72;;;21.85;37.15
11049;BME280;5577;42.706;23.160;2024-02-23T11:28:01;93742.13;;;21.57;37.23
11049;BME280;5577;42.706;23.160;2024-02-23T11:30:45;93731.59;;;21.18;37.79
11049;BME280;5577;42.706;23.160;2024-02-23T11:33:34;93742.19;;;22.14;36.19
11049;BME280;5577;42.706;23.160;2024-02-23T11:36:29;93730.00;;;22.76;35.80
11049;BME280;5577;42.706;23.160;2024-02-23T11:39:13;93720.31;;;22.37;35.38
11049;BME280;5577;42.706;23.160;2024-02-23T11:41:58;93730.09;;;22.60;35.45
11049;BME280;5577;42.706;23.160;2024-02-23T11:44:43;93722.44;;;20.48;37.74
11049;BME280;5577;42.706;23.160;2024-02-23T11:47:28;93723.66;;;20.27;38.84
11049;BME280;5577;42.706;23.160;2024-02-23T11:50:13;93729.66;;;19.33;39.64
11049;BME280;5577;42.706;23.160;2024-02-23T11:52:59;93683.91;;;18.71;40.58
11049;BME280;5577;42.706;23.160;2024-02-23T11:55:43;93714.75;;;18.83;40.78
11049;BME280;5577;42.706;23.160;2024-02-23T11:58:28;93713.88;;;18.89;40.68
11049;BME280;5577;42.706;23.160;2024-02-23T12:01:12;93707.25;;;18.97;41.04
11049;BME280;5577;42.706;23.160;2024-02-23T12:03:56;93698.59;;;18.07;42.82
11049;BME280;5577;42.706;23.160;2024-02-23T12:06:42;93707.22;;;18.74;41.59
11049;BME280;5577;42.706;23.160;2024-02-23T12:09:26;93707.72;;;18.43;41.45
11049;BME280;5577;42.706;23.160;2024-02-23T12:12:10;93707.09;;;18.02;42.53
11049;BME280;5577;42.706;23.160;2024-02-23T12:14:54;93684.34;;;17.83;42.75
11049;BME280;5577;42.706;23.160;2024-02-23T12:17:49;93681.19;;;17.92;42.42
11049;BME280;5577;42.706;23.160;2024-02-23T12:20:33;93683.78;;;18.55;41.57
11049;BME280;5577;42.706;23.160;2024-02-23T12:23:18;93689.47;;;19.49;40.07
11049;BME280;5577;42.706;23.160;2024-02-23T12:26:02;93686.25;;;20.17;39.07
11049;BME280;5577;42.706;23.160;2024-02-23T12:28:46;93671.69;;;20.82;37.82
11049;BME280;5577;42.706;23.160;2024-02-23T12:31:34;93684.50;;;22.99;35.28
11049;BME280;5577;42.706;23.160;2024-02-23T12:34:18;93679.38;;;23.60;33.72
11049;BME280;5577;42.706;23.160;2024-02-23T12:37:04;93687.63;;;23.10;33.97
11049;BME280;5577;42.706;23.160;2024-02-23T12:39:49;93674.75;;;23.14;33.27
11049;BME280;5577;42.706;23.160;2024-02-23T12:42:33;93670.47;;;22.16;34.66
11049;BME280;5577;42.706;23.160;2024-02-23T12:45:17;93672.41;;;22.41;34.31
11049;BME280;5577;42.706;23.160;2024-02-23T12:48:01;93671.47;;;21.08;36.07
11049;BME280;5577;42.706;23.160;2024-02-23T12:50:45;93653.88;;;23.40;33.53
11049;BME280;5577;42.706;23.160;2024-02-23T12:53:37;93651.59;;;22.79;33.85
11049;BME280;5577;42.706;23.160;2024-02-23T12:56:21;93628.94;;;22.39;33.56
11049;BME280;5577;42.706;23.160;2024-02-23T12:59:05;93656.28;;;23.13;33.03
11049;BME280;5577;42.706;23.160;2024-02-23T13:01:49;93665.31;;;23.44;32.36
11049;BME280;5577;42.706;23.160;2024-02-23T13:04:33;93672.09;;;20.48;35.49
11049;BME280;5577;42.706;23.160;2024-02-23T13:07:17;93662.91;;;19.94;37.33
11049;BME280;5577;42.706;23.160;2024-02-23T13:10:01;93658.91;;;21.62;34.70
11049;BME280;5577;42.706;23.160;2024-02-23T13:12:45;93648.91;;;20.22;36.23
11049;BME280;5577;42.706;23.160;2024-02-23T13:15:30;93682.41;;;21.17;34.41
11049;BME280;5577;42.706;23.160;2024-02-23T13:18:14;93639.72;;;22.14;32.54
11049;BME280;5577;42.706;23.160;2024-02-23T13:20:58;93667.81;;;23.38;30.87
11049;BME280;5577;42.706;23.160;2024-02-23T13:23:42;93647.28;;;21.21;32.67
11049;BME280;5577;42.706;23.160;2024-02-23T13:26:26;93657.56;;;20.10;34.97
11049;BME280;5577;42.706;23.160;2024-02-23T13:29:10;93633.41;;;21.79;32.55
11049;BME280;5577;42.706;23.160;2024-02-23T13:31:54;93655.72;;;22.46;31.59
11049;BME280;5577;42.706;23.160;2024-02-23T13:34:38;93667.09;;;22.00;31.89
11049;BME280;5577;42.706;23.160;2024-02-23T13:37:22;93654.94;;;22.20;31.60
11049;BME280;5577;42.706;23.160;2024-02-23T13:40:08;93653.31;;;20.13;33.81
11049;BME280;5577;42.706;23.160;2024-02-23T13:42:52;93656.09;;;19.08;35.36
11049;BME280;5577;42.706;23.160;2024-02-23T13:45:50;93635.91;;;19.42;35.22
11049;BME280;5577;42.706;23.160;2024-02-23T13:48:38;93662.38;;;18.98;36.03
11049;BME280;5577;42.706;23.160;2024-02-23T13:51:22;93672.25;;;18.81;36.07
11049;BME280;5577;42.706;23.160;2024-02-23T13:54:06;93664.97;;;19.24;35.09
11049;BME280;5577;42.706;23.160;2024-02-23T13:56:50;93673.47;;;18.54;35.88
11049;BME280;5577;42.706;23.160;2024-02-23T13:59:34;93668.13;;;18.24;36.25
11049;BME280;5577;42.706;23.160;2024-02-23T14:02:25;93688.69;;;20.63;33.23
11049;BME280;5577;42.706;23.160;2024-02-23T14:05:10;93651.09;;;20.59;33.04
11049;BME280;5577;42.706;23.160;2024-02-23T14:07:54;93661.38;;;20.13;33.53
11049;BME280;5577;42.706;23.160;2024-02-23T14:10:39;93662.38;;;18.98;34.76
11049;BME280;5577;42.706;23.160;2024-02-23T14:13:24;93653.81;;;18.07;36.11
11049;BME280;5577;42.706;23.160;2024-02-23T14:16:08;93656.09;;;17.49;37.08
11049;BME280;5577;42.706;23.160;2024-02-23T14:18:52;93660.03;;;17.34;37.89
11049;BME280;5577;42.706;23.160;2024-02-23T14:21:36;93654.13;;;17.53;38.15
11049;BME280;5577;42.706;23.160;2024-02-23T14:24:20;93645.97;;;17.63;38.44
11049;BME280;5577;42.706;23.160;2024-02-23T14:27:04;93665.44;;;17.97;37.94
11049;BME280;5577;42.706;23.160;2024-02-23T14:29:48;93682.47;;;17.80;37.30
11049;BME280;5577;42.706;23.160;2024-02-23T14:32:33;93663.41;;;17.78;37.70